Time;durP1;ratioP1;P1;durP2;ratioP2;P2;SDS_P1;SDS_P2;PMS_P1;PMS_P2;Temp;Humidity;BMP_temperature;BMP_pressure;BME280_temperature;BME280_humidity;BME280_pressure;Samples;Min_cycle;Max_cycle;Signal;HPM_P1;HPM_P2
2021/12/23 00:00:54;;;;;;;38.65;17.88;;;-2.40;99.90;;;;;;4965020;29;20070;-77
2021/12/23 07:55:08;;;;;;;36.47;16.48;;;-3.10;99.90;;;;;;5757898;23;20083;-76
2021/12/23 07:57:36;;;;;;;34.53;15.53;;;-3.10;99.90;;;;;;4959481;29;20055;-79
2021/12/23 08:00:04;;;;;;;38.28;15.95;;;-3.10;99.90;;;;;;4963247;29;20047;-78
2021/12/23 08:02:31;;;;;;;33.25;14.73;;;-3.10;99.90;;;;;;4965125;28;20111;-78
2021/12/23 08:04:59;;;;;;;36.72;13.98;;;-3.10;99.90;;;;;;4963515;29;20058;-77
2021/12/23 08:07:26;;;;;;;33.22;14.63;;;-3.00;99.90;;;;;;4964475;28;20062;-77
2021/12/23 08:09:54;;;;;;;36.38;15.90;;;-3.00;99.90;;;;;;4964579;29;20070;-77
2021/12/23 08:12:22;;;;;;;33.58;15.55;;;-2.90;99.90;;;;;;4964847;29;20405;-78
2021/12/23 08:14:49;;;;;;;33.17;15.35;;;-2.90;99.90;;;;;;4960878;28;20433;-78
2021/12/23 08:17:16;;;;;;;34.38;15.15;;;-2.80;99.90;;;;;;4960811;29;20404;-77
2021/12/23 08:19:43;;;;;;;32.38;15.40;;;-2.80;99.90;;;;;;4963890;29;20134;-77
2021/12/23 08:22:10;;;;;;;34.15;15.63;;;-2.70;99.90;;;;;;4960643;28;20083;-78
2021/12/23 08:24:38;;;;;;;35.75;15.57;;;-2.60;99.90;;;;;;4953535;29;20054;-76
2021/12/23 08:27:07;;;;;;;35.75;15.85;;;-2.60;99.90;;;;;;4957848;28;20055;-78
2021/12/23 08:29:37;;;;;;;35.22;15.65;;;-2.50;99.90;;;;;;4956801;29;20058;-75
2021/12/23 08:32:06;;;;;;;35.45;15.98;;;-2.50;99.90;;;;;;4958059;29;20055;-77
2021/12/23 08:34:36;;;;;;;34.67;15.93;;;-2.40;99.90;;;;;;4957806;29;20049;-77
2021/12/23 08:37:06;;;;;;;36.58;16.50;;;-2.40;99.90;;;;;;4953925;29;20055;-76
2021/12/23 08:39:34;;;;;;;35.72;16.23;;;-2.30;99.90;;;;;;4957757;29;20130;-75
2021/12/23 08:42:01;;;;;;;35.58;16.48;;;-2.30;99.90;;;;;;4957665;29;20132;-76
2021/12/23 08:44:28;;;;;;;33.90;16.20;;;-2.20;99.90;;;;;;4959717;29;20078;-78
2021/12/23 08:46:57;;;;;;;36.80;16.30;;;-2.20;99.90;;;;;;4956797;29;20078;-79
2021/12/23 08:49:24;;;;;;;31.20;15.05;;;-2.10;99.90;;;;;;4959213;29;20071;-79
2021/12/23 08:51:51;;;;;;;33.72;16.33;;;-2.10;99.90;;;;;;4956300;29;20115;-79
2021/12/23 08:54:18;;;;;;;35.33;16.50;;;-2.00;99.90;;;;;;4960351;29;20040;-79
2021/12/23 08:56:45;;;;;;;40.30;17.05;;;-2.00;99.90;;;;;;4960815;28;20054;-79
2021/12/23 08:59:13;;;;;;;36.20;16.80;;;-1.90;99.90;;;;;;4959447;29;20138;-78
2021/12/23 09:01:41;;;;;;;36.88;17.52;;;-1.90;99.90;;;;;;4958111;28;20058;-79
2021/12/23 09:04:10;;;;;;;37.97;17.38;;;-1.90;99.90;;;;;;4956591;29;20496;-77
2021/12/23 09:06:37;;;;;;;38.38;17.52;;;-1.80;99.90;;;;;;4958878;29;20047;-78
2021/12/23 09:09:05;;;;;;;34.80;16.17;;;-1.70;99.90;;;;;;4959145;28;20529;-79
2021/12/23 09:11:32;;;;;;;34.67;16.27;;;-1.60;99.90;;;;;;4959486;29;20432;-79
2021/12/23 09:14:00;;;;;;;34.85;16.42;;;-1.60;99.90;;;;;;4958720;28;20545;-77
2021/12/23 09:16:27;;;;;;;34.08;15.77;;;-1.50;99.90;;;;;;4960550;29;20501;-77
2021/12/23 09:18:54;;;;;;;31.05;15.23;;;-1.50;99.90;;;;;;4959111;29;20059;-79
2021/12/23 09:21:26;;;;;;;39.90;17.70;;;-1.40;99.90;;;;;;4962253;29;20047;-79
2021/12/23 09:23:56;;;;;;;38.10;18.55;;;-1.40;99.90;;;;;;4963291;29;20106;-79
2021/12/23 09:26:27;;;;;;;41.30;19.08;;;-1.30;99.90;;;;;;4964051;29;20085;-80
2021/12/23 09:29:01;;;;;;;42.22;19.98;;;-1.30;99.90;;;;;;4946981;29;20353;-80
2021/12/23 09:34:14;;;;;;;36.58;17.38;;;-1.20;99.90;;;;;;4960409;29;20066;-79
2021/12/23 09:36:44;;;;;;;34.88;16.65;;;-1.10;99.90;;;;;;4959130;28;20134;-79
2021/12/23 09:39:13;;;;;;;35.90;17.02;;;-1.10;99.90;;;;;;4956810;28;20135;-77
2021/12/23 09:41:45;;;;;;;37.33;18.70;;;-1.00;99.90;;;;;;4956603;29;20075;-80
2021/12/23 09:44:14;;;;;;;37.88;18.63;;;-1.00;99.90;;;;;;4955867;29;20404;-81
2021/12/23 09:46:42;;;;;;;40.40;20.50;;;-0.90;99.90;;;;;;4949024;28;20133;-79
2021/12/23 09:49:09;;;;;;;40.58;19.75;;;-0.90;99.90;;;;;;4956525;29;20155;-78
2021/12/23 09:51:38;;;;;;;42.80;19.40;;;-0.80;99.90;;;;;;4956489;29;20057;-80
2021/12/23 09:54:10;;;;;;;42.22;19.80;;;-0.80;99.90;;;;;;4956045;28;20146;-78
2021/12/23 09:56:38;;;;;;;39.38;19.30;;;-0.80;99.90;;;;;;4955596;29;20130;-77
2021/12/23 09:59:07;;;;;;;41.30;18.42;;;-0.70;99.90;;;;;;4955593;29;20421;-80
2021/12/23 10:01:39;;;;;;;36.47;17.67;;;-0.70;99.90;;;;;;4950898;29;20047;-78
2021/12/23 10:04:06;;;;;;;40.78;19.77;;;-0.60;99.90;;;;;;4955125;29;20102;-79
2021/12/23 10:06:34;;;;;;;42.70;19.77;;;-0.60;99.90;;;;;;4954535;29;20081;-79
2021/12/23 10:09:01;;;;;;;38.83;18.63;;;-0.50;99.90;;;;;;4955281;28;20650;-79
2021/12/23 10:11:43;;;;;;;43.33;19.77;;;-0.50;99.90;;;;;;4955259;28;20076;-79
2021/12/23 10:31:10;;;;;;;38.53;19.15;;;0.10;99.90;;;;;;4952117;29;20055;-78
2021/12/23 10:33:49;;;;;;;36.13;18.05;;;0.20;99.90;;;;;;4954866;29;20043;-79
2021/12/23 10:39:01;;;;;;;37.75;18.55;;;0.40;99.90;;;;;;4954605;29;20102;-79
2021/12/23 10:41:29;;;;;;;36.05;17.70;;;0.50;99.90;;;;;;4950266;28;20053;-78
2021/12/23 10:44:00;;;;;;;39.47;18.65;;;0.50;99.90;;;;;;4954302;29;20229;-79
2021/12/23 10:46:30;;;;;;;35.60;16.73;;;0.60;99.90;;;;;;4950392;29;20043;-80
2021/12/23 10:49:14;;;;;;;35.80;17.77;;;0.60;99.90;;;;;;4948871;29;20139;-79
2021/12/23 10:51:59;;;;;;;36.20;17.33;;;0.70;99.90;;;;;;4954156;28;20604;-79
2021/12/23 11:00:21;;;;;;;31.52;15.95;;;0.90;99.30;;;;;;4954443;29;20055;-78
2021/12/23 11:03:06;;;;;;;34.42;16.75;;;1.00;99.10;;;;;;4952451;29;20055;-79
2021/12/23 11:05:37;;;;;;;32.65;16.40;;;1.00;98.80;;;;;;4950513;29;20054;-78
2021/12/23 11:08:17;;;;;;;33.97;16.67;;;1.10;98.80;;;;;;4954388;29;20051;-79
2021/12/23 11:28:21;;;;;;;36.10;18.77;;;1.60;98.50;;;;;;4925154;29;20496;-78
2021/12/23 11:37:04;;;;;;;32.78;15.52;;;1.70;99.10;;;;;;4954206;29;19929;-78
2021/12/23 11:39:35;;;;;;;31.10;16.00;;;1.70;99.20;;;;;;4954190;28;20070;-77
2021/12/23 11:42:11;;;;;;;31.15;16.20;;;1.80;99.40;;;;;;4954347;29;20412;-78
2021/12/23 11:44:38;;;;;;;31.90;15.15;;;1.80;99.50;;;;;;4954279;29;20122;-79
2021/12/23 11:47:10;;;;;;;27.67;13.95;;;1.90;99.60;;;;;;4952799;28;20491;-79
2021/12/23 11:49:41;;;;;;;29.02;14.60;;;1.90;99.50;;;;;;4949817;29;20105;-78
2021/12/23 11:52:09;;;;;;;25.80;13.55;;;2.00;99.40;;;;;;4950663;29;20485;-79
2021/12/23 11:54:39;;;;;;;26.60;13.55;;;2.10;99.50;;;;;;4950184;29;20057;-78
2021/12/23 11:57:10;;;;;;;24.65;13.32;;;2.10;99.40;;;;;;4950528;29;20378;-78
2021/12/23 11:59:41;;;;;;;28.02;13.98;;;2.20;99.40;;;;;;4950164;29;20074;-77
2021/12/23 12:02:16;;;;;;;27.58;13.38;;;2.20;99.40;;;;;;4950510;28;20484;-79
2021/12/23 12:04:44;;;;;;;;;;;2.30;99.20;;;;;;4954403;29;20043;-78
2021/12/23 12:07:18;;;;;;;25.33;12.80;;;2.40;99.10;;;;;;4953412;28;20428;-78
2021/12/23 12:09:58;;;;;;;25.20;12.88;;;2.50;99.10;;;;;;4954175;29;20130;-77
2021/12/23 12:12:26;;;;;;;26.13;13.43;;;2.60;99.00;;;;;;4953864;29;20055;-77
2021/12/23 12:14:55;;;;;;;25.17;13.15;;;2.70;98.90;;;;;;4953184;29;20090;-77
2021/12/23 12:17:39;;;;;;;25.42;12.82;;;2.70;98.80;;;;;;4953468;29;20172;-78
2021/12/23 12:20:26;;;;;;;20.40;11.13;;;2.80;98.90;;;;;;4934573;29;20052;-78
2021/12/23 12:22:58;;;;;;;18.67;10.13;;;2.90;98.20;;;;;;4943344;29;20047;-77
2021/12/23 12:26:03;;;;;;;19.83;10.48;;;3.00;97.70;;;;;;4953665;29;20406;-79
2021/12/23 12:28:39;;;;;;;19.38;10.60;;;3.20;97.50;;;;;;4949788;29;20066;-79
2021/12/23 12:31:10;;;;;;;20.55;10.48;;;3.30;97.20;;;;;;4952402;29;20062;-80
2021/12/23 12:33:54;;;;;;;20.65;10.85;;;3.50;97.00;;;;;;4952694;28;20057;-78
2021/12/23 12:36:25;;;;;;;18.13;9.18;;;3.50;96.60;;;;;;4950810;29;20043;-79
2021/12/23 12:38:57;;;;;;;19.10;10.25;;;3.70;96.70;;;;;;4952825;29;20134;-78
2021/12/23 12:41:31;;;;;;;20.88;10.77;;;3.80;96.60;;;;;;4944734;28;20079;-79
2021/12/23 12:44:08;;;;;;;19.85;10.07;;;3.80;96.30;;;;;;4941763;29;20066;-79
2021/12/23 12:49:43;;;;;;;19.50;10.23;;;4.00;96.30;;;;;;4943779;29;20547;-78
2021/12/23 12:52:22;;;;;;;20.15;10.70;;;4.10;96.00;;;;;;4952587;29;20050;-79
2021/12/23 12:54:54;;;;;;;20.23;10.73;;;4.10;96.10;;;;;;4938308;28;20047;-79
2021/12/23 12:57:25;;;;;;;19.80;10.80;;;4.10;96.10;;;;;;4927541;29;20401;-79
2021/12/23 12:59:53;;;;;;;21.40;11.35;;;4.20;95.90;;;;;;4946478;29;20379;-78
2021/12/23 13:02:29;;;;;;;18.98;10.77;;;4.20;96.10;;;;;;4952412;28;20130;-77
2021/12/23 13:05:05;;;;;;;21.30;11.00;;;4.20;96.20;;;;;;4942308;29;20055;-79
2021/12/23 13:07:36;;;;;;;22.30;10.85;;;4.20;96.40;;;;;;4951339;29;20047;-76
2021/12/23 13:10:12;;;;;;;20.05;10.25;;;4.20;96.50;;;;;;4952494;29;20480;-79
2021/12/23 13:12:49;;;;;;;19.67;10.65;;;4.20;96.80;;;;;;4952140;29;20129;-78
2021/12/23 13:15:20;;;;;;;19.77;11.27;;;4.20;96.70;;;;;;4951672;28;20055;-78
2021/12/23 13:17:55;;;;;;;20.50;10.57;;;4.20;96.80;;;;;;4952627;29;20057;-78
2021/12/23 13:20:47;;;;;;;18.17;10.55;;;4.20;97.00;;;;;;4942008;29;20460;-78
2021/12/23 13:23:21;;;;;;;19.75;10.38;;;4.20;97.10;;;;;;4952224;29;20550;-79
2021/12/23 13:25:56;;;;;;;23.88;11.73;;;4.20;96.70;;;;;;4942057;28;20445;-79
2021/12/23 13:28:27;;;;;;;21.17;11.38;;;4.30;96.50;;;;;;4951175;28;20055;-79
2021/12/23 13:30:55;;;;;;;23.52;11.98;;;4.30;96.50;;;;;;4951824;29;20095;-77
2021/12/23 13:33:23;;;;;;;21.15;11.30;;;4.30;96.40;;;;;;4951527;28;20048;-78
2021/12/23 13:35:51;;;;;;;21.20;11.35;;;4.30;96.30;;;;;;4951656;28;20054;-78
2021/12/23 13:38:38;;;;;;;20.13;10.70;;;4.40;96.30;;;;;;4950663;29;20084;-77
2021/12/23 13:41:27;;;;;;;18.63;10.05;;;4.40;96.30;;;;;;4942331;29;20062;-79
2021/12/23 13:43:57;;;;;;;18.58;9.43;;;4.40;96.30;;;;;;4951811;29;20148;-78
2021/12/23 13:46:28;;;;;;;15.73;8.85;;;4.40;96.10;;;;;;4949976;29;20039;-76
2021/12/23 13:49:00;;;;;;;15.23;7.72;;;4.50;96.00;;;;;;4950914;29;20489;-78
2021/12/23 13:51:31;;;;;;;18.08;9.48;;;4.50;95.90;;;;;;4950575;29;20047;-79
2021/12/23 13:54:16;;;;;;;18.80;9.88;;;4.60;96.00;;;;;;4951257;29;20126;-78
2021/12/23 13:56:48;;;;;;;18.73;10.00;;;4.60;96.10;;;;;;4934615;29;20061;-78
2021/12/23 13:59:19;;;;;;;20.83;11.35;;;4.50;96.20;;;;;;4940222;29;20512;-77
2021/12/23 14:02:04;;;;;;;21.33;10.93;;;4.50;96.30;;;;;;4951273;29;20047;-79
2021/12/23 14:04:40;;;;;;;23.50;11.93;;;4.50;96.40;;;;;;4950621;29;20049;-77
2021/12/23 14:07:20;;;;;;;20.85;11.20;;;4.50;96.40;;;;;;4951174;29;20134;-77
2021/12/23 14:09:52;;;;;;;20.85;11.27;;;4.50;96.50;;;;;;4947678;29;20510;-78
2021/12/23 14:12:23;;;;;;;21.27;11.15;;;4.40;96.50;;;;;;4951007;29;20051;-75
2021/12/23 14:14:54;;;;;;;18.92;10.27;;;4.40;96.70;;;;;;4950828;29;20138;-78
2021/12/23 14:17:32;;;;;;;21.35;11.52;;;4.40;96.80;;;;;;4950318;29;20051;-78
2021/12/23 14:23:15;;;;;;;18.50;10.52;;;4.40;96.90;;;;;;4950550;29;20074;-78
2021/12/23 14:25:52;;;;;;;23.40;11.32;;;4.40;96.90;;;;;;4948844;28;20485;-78
2021/12/23 14:28:23;;;;;;;21.52;11.10;;;4.40;96.60;;;;;;4950537;29;20051;-78
2021/12/23 14:30:55;;;;;;;42.03;20.10;;;4.40;96.80;;;;;;4946458;29;20122;-78
2021/12/23 14:33:26;;;;;;;44.80;21.83;;;4.50;96.60;;;;;;4940267;29;20405;-78
2021/12/23 14:36:02;;;;;;;35.53;17.83;;;4.50;96.70;;;;;;4949483;29;20047;-78
2021/12/23 14:38:33;;;;;;;33.03;15.93;;;4.50;96.70;;;;;;4949835;29;20540;-77
2021/12/23 14:41:13;;;;;;;21.90;11.93;;;4.50;96.70;;;;;;4948983;28;20057;-77
2021/12/23 14:44:16;;;;;;;20.50;11.55;;;4.50;96.60;;;;;;4940057;29;20558;-78
2021/12/23 14:46:56;;;;;;;20.45;10.98;;;4.60;96.70;;;;;;4934865;29;20047;-77
2021/12/23 14:49:59;;;;;;;19.13;10.30;;;4.60;96.70;;;;;;4932704;29;20143;-77
2021/12/23 14:52:34;;;;;;;18.98;10.40;;;4.60;96.70;;;;;;4942223;29;20058;-78
2021/12/23 14:55:09;;;;;;;16.42;9.52;;;4.60;96.90;;;;;;4931272;29;20059;-78
2021/12/23 14:57:39;;;;;;;;;;;4.60;96.80;;;;;;4946661;29;20048;-77
2021/12/23 15:00:12;;;;;;;19.15;10.50;;;4.70;96.70;;;;;;4948959;28;20009;-76
2021/12/23 15:02:40;;;;;;;18.27;9.43;;;4.70;96.90;;;;;;4949531;29;20143;-74
2021/12/23 15:05:14;;;;;;;18.70;9.38;;;4.70;96.70;;;;;;4949989;29;20055;-78
2021/12/23 15:08:04;;;;;;;20.63;9.77;;;5.10;96.90;;;;;;4936494;29;20040;-79
2021/12/23 15:10:39;;;;;;;21.10;10.85;;;5.60;96.50;;;;;;4949681;29;20059;-75
2021/12/23 15:13:31;;;;;;;17.60;10.52;;;5.70;95.20;;;;;;4950399;29;20043;-78
2021/12/23 15:16:06;;;;;;;20.90;10.70;;;5.80;94.60;;;;;;4944523;29;20047;-78
2021/12/23 15:18:53;;;;;;;17.25;9.00;;;5.80;94.20;;;;;;4949504;29;20485;-78
2021/12/23 15:21:36;;;;;;;17.00;9.25;;;5.70;94.10;;;;;;4949756;29;20051;-77
2021/12/23 15:24:18;;;;;;;16.08;9.30;;;5.70;94.00;;;;;;4949689;29;20134;-78
2021/12/23 15:26:54;;;;;;;13.50;7.57;;;5.70;93.90;;;;;;4949338;29;20039;-77
2021/12/23 15:29:26;;;;;;;12.50;6.47;;;5.60;93.80;;;;;;4949709;29;20138;-78
2021/12/23 15:32:02;;;;;;;10.93;5.20;;;5.60;93.80;;;;;;4950361;29;20043;-77
2021/12/23 15:34:33;;;;;;;9.95;5.10;;;5.60;93.70;;;;;;4949969;29;20500;-77
2021/12/23 15:37:00;;;;;;;16.27;7.25;;;5.60;93.60;;;;;;4950146;28;20058;-78
2021/12/23 15:39:32;;;;;;;25.42;12.50;;;5.60;93.40;;;;;;4953631;28;20444;-78
2021/12/23 15:42:02;;;;;;;21.92;9.80;;;5.70;93.30;;;;;;4953894;29;20176;-78
2021/12/23 15:44:33;;;;;;;14.88;7.40;;;5.70;93.20;;;;;;4953703;29;20077;-78
2021/12/23 15:47:04;;;;;;;11.18;5.50;;;5.80;93.00;;;;;;4953546;29;20427;-79
2021/12/23 15:49:31;;;;;;;9.68;4.80;;;5.80;92.90;;;;;;4952888;29;20062;-76
2021/12/23 15:52:00;;;;;;;8.80;4.38;;;5.90;93.20;;;;;;4953702;29;20047;-77
2021/12/23 15:54:27;;;;;;;7.78;4.72;;;5.90;92.90;;;;;;4953143;28;20241;-79
2021/12/23 15:56:56;;;;;;;9.27;4.57;;;5.90;92.70;;;;;;4953440;28;20062;-77
2021/12/23 15:59:24;;;;;;;7.93;4.07;;;6.00;92.70;;;;;;4952910;28;20146;-78
2021/12/23 16:01:55;;;;;;;7.78;4.00;;;6.00;92.70;;;;;;4952628;28;20050;-78
2021/12/23 16:04:28;;;;;;;7.05;3.40;;;6.00;92.70;;;;;;4953381;29;20057;-77
2021/12/23 16:09:42;;;;;;;11.18;5.63;;;6.00;92.90;;;;;;4953147;29;20086;-79
2021/12/23 16:12:12;;;;;;;8.20;4.50;;;6.10;93.10;;;;;;4953112;29;20051;-76
2021/12/23 16:14:42;;;;;;;10.63;4.65;;;6.00;93.10;;;;;;4953091;29;20055;-78
2021/12/23 16:17:10;;;;;;;8.73;4.75;;;6.00;93.20;;;;;;4953186;28;20143;-79
2021/12/23 16:19:39;;;;;;;8.13;4.38;;;6.00;93.20;;;;;;4952894;29;20051;-79
2021/12/23 16:22:06;;;;;;;7.97;4.40;;;6.00;93.30;;;;;;4952614;29;20051;-78
2021/12/23 16:24:34;;;;;;;9.10;4.60;;;6.00;93.40;;;;;;4943790;28;20135;-78
2021/12/23 16:27:04;;;;;;;7.47;4.40;;;6.00;93.50;;;;;;4947970;29;20055;-77
2021/12/23 16:30:04;;;;;;;10.38;4.50;;;6.00;93.50;;;;;;4952665;29;20126;-80
2021/12/23 16:32:37;;;;;;;8.15;4.40;;;6.00;93.60;;;;;;4952868;29;20059;-77
2021/12/23 16:35:06;;;;;;;8.13;4.25;;;6.00;93.60;;;;;;4952531;29;20049;-78
2021/12/23 16:37:33;;;;;;;8.18;4.35;;;6.00;93.70;;;;;;4952839;29;20051;-78
2021/12/23 16:40:00;;;;;;;8.23;4.35;;;6.10;94.00;;;;;;4952468;29;20496;-79
2021/12/23 16:42:30;;;;;;;9.77;4.97;;;6.20;93.90;;;;;;4952262;28;20340;-79
2021/12/23 16:44:57;;;;;;;8.25;4.90;;;6.20;94.00;;;;;;4952897;29;20057;-78
2021/12/23 16:47:25;;;;;;;8.93;5.00;;;6.20;94.00;;;;;;4952744;29;20055;-79
2021/12/23 16:49:53;;;;;;;9.73;5.40;;;6.20;94.00;;;;;;4950999;28;20122;-78
2021/12/23 16:52:20;;;;;;;8.73;4.50;;;6.30;94.10;;;;;;4950963;29;20054;-77
2021/12/23 16:54:54;;;;;;;8.30;4.40;;;6.30;94.10;;;;;;4948426;28;20086;-79
2021/12/23 17:00:12;;;;;;;8.98;5.18;;;6.30;94.50;;;;;;4946323;29;20142;-79
2021/12/23 17:02:41;;;;;;;8.02;4.32;;;6.30;94.30;;;;;;4952060;29;20094;-77
2021/12/23 17:05:12;;;;;;;9.50;4.47;;;6.30;94.50;;;;;;4952228;29;20133;-78
2021/12/23 17:07:41;;;;;;;8.52;4.53;;;6.40;94.60;;;;;;4951495;29;20404;-79
2021/12/23 17:10:10;;;;;;;7.45;4.35;;;6.40;94.60;;;;;;4952152;29;20051;-77
2021/12/23 17:12:37;;;;;;;8.05;4.55;;;6.40;94.70;;;;;;4951830;28;20158;-80
2021/12/23 17:15:06;;;;;;;15.50;8.38;;;6.50;95.10;;;;;;4952206;28;20079;-78
2021/12/23 17:17:35;;;;;;;21.30;9.48;;;6.50;94.90;;;;;;4952059;28;20557;-77
2021/12/23 17:20:08;;;;;;;16.67;7.90;;;6.50;95.00;;;;;;4949895;29;20125;-77
2021/12/23 17:22:37;;;;;;;13.00;6.22;;;6.60;95.10;;;;;;4952336;29;20058;-79
2021/12/23 17:25:05;;;;;;;10.75;5.57;;;6.60;95.10;;;;;;4949363;28;20062;-79
2021/12/23 17:27:33;;;;;;;9.77;4.93;;;6.60;95.10;;;;;;4951230;28;20507;-78
2021/12/23 17:30:01;;;;;;;8.70;5.40;;;6.60;95.20;;;;;;4947984;29;20047;-77
2021/12/23 17:32:28;;;;;;;9.95;5.18;;;6.60;95.20;;;;;;4951902;29;20061;-77
2021/12/23 17:34:56;;;;;;;11.38;4.90;;;6.70;95.20;;;;;;4951219;29;20047;-77
2021/12/23 17:37:23;;;;;;;10.90;5.40;;;6.70;95.30;;;;;;4951470;29;20401;-79
2021/12/23 17:39:52;;;;;;;14.13;6.75;;;6.70;95.30;;;;;;4951154;28;20560;-78
2021/12/23 17:42:19;;;;;;;13.40;7.28;;;6.70;95.10;;;;;;4951881;29;20766;-80
2021/12/23 17:44:46;;;;;;;15.00;7.57;;;6.80;94.80;;;;;;4951643;29;20143;-77
2021/12/23 17:47:15;;;;;;;16.75;9.13;;;6.70;94.70;;;;;;4950263;28;20549;-79
2021/12/23 17:49:42;;;;;;;16.10;8.13;;;6.70;94.70;;;;;;4950111;29;20044;-80
2021/12/23 17:52:11;;;;;;;14.07;8.00;;;6.70;94.70;;;;;;4950640;28;20515;-78
2021/12/23 17:54:38;;;;;;;13.98;8.18;;;6.60;94.70;;;;;;4950696;28;20680;-79
2021/12/23 17:57:07;;;;;;;13.55;7.95;;;6.50;94.80;;;;;;4950824;29;20055;-80
2021/12/23 17:59:34;;;;;;;14.07;7.30;;;6.50;94.90;;;;;;4950306;28;20647;-79
2021/12/23 18:02:01;;;;;;;15.80;8.23;;;6.50;95.00;;;;;;4951152;28;20406;-77
2021/12/23 18:04:29;;;;;;;15.30;8.32;;;6.40;95.40;;;;;;4950786;28;20490;-79
2021/12/23 18:06:58;;;;;;;13.43;7.55;;;6.40;95.20;;;;;;4951213;28;20055;-79
2021/12/23 18:09:25;;;;;;;12.85;7.75;;;6.40;95.40;;;;;;4942625;29;20056;-79
2021/12/23 18:11:54;;;;;;;13.57;7.40;;;6.40;95.70;;;;;;4944843;29;20131;-79
2021/12/23 18:14:22;;;;;;;13.73;6.78;;;6.40;96.60;;;;;;4949416;28;20075;-78
2021/12/23 18:16:50;;;;;;;12.30;6.30;;;6.50;97.00;;;;;;4949502;29;20051;-79
2021/12/23 18:19:18;;;;;;;8.38;4.90;;;6.60;97.30;;;;;;4950221;28;20150;-77
2021/12/23 18:21:45;;;;;;;11.55;5.10;;;6.70;97.40;;;;;;4949711;29;20058;-78
2021/12/23 18:24:12;;;;;;;8.82;4.45;;;6.70;97.50;;;;;;4951061;29;20051;-79
2021/12/23 18:26:40;;;;;;;9.75;5.07;;;6.90;97.50;;;;;;4950515;29;20067;-80
2021/12/23 18:29:07;;;;;;;9.73;4.65;;;7.00;97.60;;;;;;4950553;28;20503;-78
2021/12/23 18:31:40;;;;;;;7.68;4.22;;;7.00;97.50;;;;;;4950500;29;20142;-78
2021/12/23 18:34:08;;;;;;;8.07;4.38;;;7.10;97.50;;;;;;4950358;29;20051;-77
2021/12/23 18:36:39;;;;;;;8.45;4.53;;;7.20;97.40;;;;;;4950413;28;20821;-79
2021/12/23 18:39:12;;;;;;;8.23;4.10;;;7.20;97.60;;;;;;4950061;29;20073;-78
2021/12/23 18:41:43;;;;;;;9.63;4.45;;;7.30;97.30;;;;;;4950318;29;20047;-78
2021/12/23 18:44:11;;;;;;;8.68;4.30;;;7.40;97.30;;;;;;4950312;29;20047;-79
2021/12/23 18:46:40;;;;;;;8.48;4.97;;;7.40;97.30;;;;;;4950707;29;20570;-78
2021/12/23 18:49:08;;;;;;;9.15;4.65;;;7.40;97.30;;;;;;4950619;29;20138;-79
2021/12/23 18:51:36;;;;;;;8.90;4.60;;;7.40;97.30;;;;;;4949870;28;20391;-79
2021/12/23 18:54:03;;;;;;;9.50;4.95;;;7.40;97.30;;;;;;4950405;29;20130;-78
2021/12/23 18:56:31;;;;;;;8.93;4.30;;;7.50;97.30;;;;;;4950127;28;20138;-79
2021/12/23 18:58:59;;;;;;;9.40;5.05;;;7.50;97.30;;;;;;4950361;29;20143;-77
2021/12/23 19:01:29;;;;;;;9.55;4.80;;;7.60;97.30;;;;;;4949782;29;20086;-78
2021/12/23 19:06:49;;;;;;;10.80;5.45;;;7.60;97.30;;;;;;4895666;28;20126;-78
2021/12/23 19:09:18;;;;;;;8.63;4.85;;;7.60;97.20;;;;;;4949906;29;20051;-78
2021/12/23 19:11:48;;;;;;;9.48;5.18;;;7.60;97.20;;;;;;4950782;28;20686;-79
2021/12/23 19:14:16;;;;;;;9.25;4.50;;;7.60;97.30;;;;;;4954700;29;20122;-80
2021/12/23 19:16:44;;;;;;;10.52;5.32;;;7.60;97.30;;;;;;4954414;28;20556;-80
2021/12/23 19:19:13;;;;;;;9.55;4.80;;;7.70;97.50;;;;;;4953950;29;20050;-81
2021/12/23 19:21:44;;;;;;;8.70;4.85;;;7.60;97.30;;;;;;4953455;29;20508;-80
2021/12/23 19:24:13;;;;;;;10.27;4.82;;;7.70;98.00;;;;;;4954268;29;20050;-78
2021/12/23 19:26:41;;;;;;;8.95;4.40;;;7.70;97.80;;;;;;4953235;29;20058;-80
2021/12/23 19:29:09;;;;;;;7.63;4.22;;;7.70;97.90;;;;;;4954094;29;20517;-80
2021/12/23 19:31:37;;;;;;;8.75;4.15;;;7.80;98.10;;;;;;4952962;28;20055;-79
2021/12/23 19:34:06;;;;;;;10.13;4.50;;;7.80;98.30;;;;;;4953666;28;20493;-80
2021/12/23 19:36:35;;;;;;;9.65;4.93;;;7.80;98.30;;;;;;4953729;28;20498;-78
2021/12/23 19:39:05;;;;;;;10.30;4.40;;;7.90;98.30;;;;;;4953880;28;20079;-78
2021/12/23 19:41:32;;;;;;;9.93;4.55;;;7.90;98.40;;;;;;4953757;29;20061;-77
2021/12/23 19:44:00;;;;;;;7.57;4.60;;;7.90;98.50;;;;;;4953783;28;20051;-76
2021/12/23 19:46:27;;;;;;;8.45;4.70;;;8.00;98.50;;;;;;4954153;29;20452;-78
2021/12/23 19:48:54;;;;;;;10.20;4.60;;;8.00;98.40;;;;;;4953847;29;20051;-78
2021/12/23 19:51:22;;;;;;;7.70;4.43;;;8.00;98.40;;;;;;4953652;29;20086;-77
2021/12/23 19:53:52;;;;;;;8.32;4.43;;;8.10;98.40;;;;;;4953614;29;20043;-77
2021/12/23 19:56:21;;;;;;;8.18;4.45;;;8.10;98.40;;;;;;4953546;28;20136;-77
2021/12/23 19:58:48;;;;;;;7.75;4.38;;;8.20;98.50;;;;;;4953462;28;20134;-76
2021/12/23 20:01:17;;;;;;;9.70;4.85;;;8.20;98.50;;;;;;4953219;29;20378;-77
2021/12/23 20:03:44;;;;;;;9.18;5.03;;;8.20;98.50;;;;;;4953694;28;20040;-80
2021/12/23 20:06:11;;;;;;;9.50;4.10;;;8.20;98.60;;;;;;4953803;29;20063;-78
2021/12/23 20:08:38;;;;;;;10.32;4.80;;;8.20;98.60;;;;;;4953626;29;20139;-79
2021/12/23 20:11:10;;;;;;;8.77;4.30;;;8.20;98.70;;;;;;4951965;29;20058;-78
2021/12/23 20:13:38;;;;;;;9.63;4.45;;;8.30;98.70;;;;;;4952378;29;20051;-79
2021/12/23 20:16:07;;;;;;;8.55;4.07;;;8.30;98.70;;;;;;4953469;29;20055;-78
2021/12/23 20:18:34;;;;;;;9.05;4.53;;;8.30;98.70;;;;;;4952916;29;20494;-78
2021/12/23 20:21:02;;;;;;;7.07;4.03;;;8.40;99.00;;;;;;4952951;29;20055;-79
2021/12/23 20:23:29;;;;;;;9.27;4.25;;;8.40;98.90;;;;;;4952596;28;20398;-78
2021/12/23 20:25:56;;;;;;;8.60;4.22;;;8.40;98.90;;;;;;4951969;29;20051;-75
2021/12/23 20:28:24;;;;;;;9.02;3.65;;;8.50;98.80;;;;;;4942195;29;20130;-77
2021/12/23 20:30:52;;;;;;;8.23;4.13;;;8.50;98.70;;;;;;4952754;29;20090;-75
2021/12/23 20:33:19;;;;;;;8.07;4.00;;;8.50;98.80;;;;;;4952603;29;20098;-77
2021/12/23 20:35:47;;;;;;;9.38;4.00;;;8.60;98.90;;;;;;4953380;28;20043;-76
2021/12/23 20:38:15;;;;;;;6.65;3.67;;;8.60;98.90;;;;;;4952860;29;20044;-78
2021/12/23 20:40:43;;;;;;;8.35;3.63;;;8.60;98.90;;;;;;4951779;29;20051;-78
2021/12/23 20:43:10;;;;;;;6.13;3.88;;;8.70;99.00;;;;;;4951999;28;20055;-77
2021/12/23 20:45:39;;;;;;;9.10;3.72;;;8.60;99.00;;;;;;4952918;29;20061;-76
2021/12/23 20:48:07;;;;;;;7.40;3.13;;;8.70;99.10;;;;;;4952886;29;20409;-75
2021/12/23 20:50:39;;;;;;;6.97;3.67;;;8.70;99.40;;;;;;4952334;28;21754;-76
2021/12/23 20:53:11;;;;;;;6.45;3.60;;;8.70;99.20;;;;;;4952870;29;20058;-77
2021/12/23 20:55:45;;;;;;;8.63;3.50;;;8.70;99.10;;;;;;4952070;29;20055;-75
2021/12/23 20:58:15;;;;;;;7.35;3.15;;;8.80;99.20;;;;;;4952236;29;20106;-78
2021/12/23 21:00:51;;;;;;;5.78;3.10;;;8.80;99.20;;;;;;4951619;29;20100;-77
2021/12/23 21:03:18;;;;;;;6.00;3.00;;;8.80;99.10;;;;;;4952523;29;20075;-79
2021/12/23 21:05:47;;;;;;;7.47;3.30;;;8.90;99.20;;;;;;4952309;29;20057;-77
2021/12/23 21:08:14;;;;;;;6.70;3.35;;;8.90;99.10;;;;;;4951514;29;20448;-78
2021/12/23 21:10:42;;;;;;;5.78;2.80;;;8.90;99.00;;;;;;4950271;29;20051;-77
2021/12/23 21:13:10;;;;;;;6.38;3.05;;;9.00;99.00;;;;;;4952211;28;20043;-76
2021/12/23 21:15:45;;;;;;;6.78;3.10;;;9.00;98.90;;;;;;4952306;28;20485;-78
2021/12/23 21:18:16;;;;;;;6.72;3.85;;;9.00;98.80;;;;;;4951690;29;20047;-77
2021/12/23 21:20:43;;;;;;;7.03;3.13;;;9.10;98.70;;;;;;4951827;29;20059;-77
2021/12/23 21:23:12;;;;;;;8.00;3.33;;;9.10;98.60;;;;;;4952347;29;20413;-78
2021/12/23 21:25:39;;;;;;;5.80;2.88;;;9.20;98.60;;;;;;4952306;29;20047;-76
2021/12/23 21:28:08;;;;;;;9.00;4.57;;;9.20;98.50;;;;;;4951977;29;20043;-76
2021/12/23 21:30:36;;;;;;;14.40;6.40;;;9.20;98.40;;;;;;4952133;29;20456;-78
2021/12/23 21:33:04;;;;;;;7.93;3.45;;;9.30;98.40;;;;;;4952410;29;20408;-79
2021/12/23 21:35:33;;;;;;;7.50;3.20;;;9.30;98.30;;;;;;4951013;28;20057;-77
2021/12/23 21:38:00;;;;;;;5.32;2.95;;;9.30;98.10;;;;;;4947422;29;20554;-77
2021/12/23 21:40:27;;;;;;;9.90;3.75;;;9.30;98.10;;;;;;4945299;29;20477;-78
2021/12/23 21:42:55;;;;;;;7.93;3.08;;;9.30;98.10;;;;;;4958568;28;20049;-74
2021/12/23 21:45:22;;;;;;;7.32;3.42;;;9.30;98.10;;;;;;4953639;28;20146;-76
2021/12/23 21:47:50;;;;;;;6.05;3.13;;;9.30;98.10;;;;;;4950839;28;20422;-75
2021/12/23 21:50:17;;;;;;;5.80;2.83;;;9.30;98.20;;;;;;4951448;29;20054;-74
2021/12/23 21:52:46;;;;;;;7.45;3.83;;;9.30;98.10;;;;;;4951632;28;20390;-75
2021/12/23 21:55:23;;;;;;;10.18;5.20;;;9.30;98.10;;;;;;4951172;28;20408;-77
2021/12/23 21:57:52;;;;;;;5.72;3.10;;;9.40;98.10;;;;;;4936895;29;20071;-77
2021/12/23 22:00:21;;;;;;;6.35;2.90;;;9.30;98.10;;;;;;4951093;29;20110;-78
2021/12/23 22:02:49;;;;;;;6.35;3.13;;;9.40;98.10;;;;;;4951471;29;20047;-77